createdAt,value
2018-02-05T00:00:36.298Z,1019.15
2018-02-05T00:01:36.307Z,1019.13
2018-02-05T00:02:36.323Z,1019.10
2018-02-05T00:03:36.345Z,1019.04
2018-02-05T00:04:36.356Z,1019.04
2018-02-05T00:05:36.382Z,1019.09
2018-02-05T00:06:36.388Z,1019.08
2018-02-05T00:07:36.411Z,1019.05
2018-02-05T00:08:36.421Z,1019.09
2018-02-05T00:09:36.442Z,1019.06
2018-02-05T00:10:36.456Z,1019.10
2018-02-05T00:11:36.474Z,1019.03
2018-02-05T00:12:36.487Z,1019.07
2018-02-05T00:13:36.501Z,1019.08
2018-02-05T00:14:36.523Z,1019.07
2018-02-05T00:15:36.541Z,1019.07
2018-02-05T00:16:36.556Z,1019.08
2018-02-05T00:17:36.567Z,1019.15
2018-02-05T00:18:36.589Z,1019.16
2018-02-05T00:19:36.599Z,1019.16
2018-02-05T00:20:36.617Z,1019.24
2018-02-05T00:21:36.637Z,1019.20
2018-02-05T00:22:36.654Z,1019.27
2018-02-05T00:23:36.666Z,1019.29
2018-02-05T00:24:36.682Z,1019.20
2018-02-05T00:25:36.702Z,1019.21
2018-02-05T00:26:36.719Z,1019.18
2018-02-05T00:27:36.736Z,1019.21
2018-02-05T00:28:36.746Z,1019.22
2018-02-05T00:29:36.766Z,1019.17
2018-02-05T00:30:36.786Z,1019.20
2018-02-05T00:31:36.795Z,1019.20
2018-02-05T00:32:36.815Z,1019.27
2018-02-05T00:33:36.827Z,1019.28
2018-02-05T00:34:36.843Z,1019.26
2018-02-05T00:35:36.866Z,1019.24
2018-02-05T00:36:36.878Z,1019.25
2018-02-05T00:37:36.897Z,1019.31
2018-02-05T00:38:36.915Z,1019.24
2018-02-05T00:39:36.928Z,1019.22
2018-02-05T00:40:36.941Z,1019.23
2018-02-05T00:41:36.962Z,1019.27
2018-02-05T00:42:36.985Z,1019.25
2018-02-05T00:43:36.995Z,1019.23
2018-02-05T00:44:37.013Z,1019.24
2018-02-05T00:45:37.022Z,1019.30
2018-02-05T00:46:37.044Z,1019.29
2018-02-05T00:47:37.056Z,1019.29
2018-02-05T00:48:37.076Z,1019.23
2018-02-05T00:49:37.092Z,1019.25
2018-02-05T00:50:37.102Z,1019.31
2018-02-05T00:51:37.125Z,1019.27
2018-02-05T00:52:37.141Z,1019.29
2018-02-05T00:53:37.150Z,1019.36
2018-02-05T00:54:37.174Z,1019.36
2018-02-05T00:55:37.183Z,1019.38
2018-02-05T00:56:37.206Z,1019.36
2018-02-05T00:57:37.215Z,1019.37
2018-02-05T00:58:37.233Z,1019.34
2018-02-05T00:59:37.254Z,1019.35
2018-02-05T01:00:37.270Z,1019.36
2018-02-05T01:01:37.280Z,1019.33
2018-02-05T01:02:37.300Z,1019.29
2018-02-05T01:03:37.318Z,1019.32
2018-02-05T01:04:37.334Z,1019.31
2018-02-05T01:05:37.343Z,1019.29
2018-02-05T01:06:37.359Z,1019.28
2018-02-05T01:07:37.382Z,1019.29
2018-02-05T01:08:37.392Z,1019.34
2018-02-05T01:09:37.413Z,1019.34
2018-02-05T01:10:37.423Z,1019.37
2018-02-05T01:11:37.446Z,1019.29
2018-02-05T01:12:37.456Z,1019.36
2018-02-05T01:13:37.477Z,1019.39
2018-02-05T01:14:37.494Z,1019.36
2018-02-05T01:15:37.503Z,1019.36
2018-02-05T01:16:40.551Z,1019.37
2018-02-05T01:17:37.546Z,1019.42
2018-02-05T01:18:37.557Z,1019.38
2018-02-05T01:19:37.570Z,1019.41
2018-02-05T01:20:37.583Z,1019.42
2018-02-05T01:21:37.604Z,1019.48
2018-02-05T01:22:37.615Z,1019.45
2018-02-05T01:23:37.632Z,1019.39
2018-02-05T01:24:37.652Z,1019.43
2018-02-05T01:25:37.661Z,1019.42
2018-02-05T01:26:37.678Z,1019.47
2018-02-05T01:27:37.700Z,1019.45
2018-02-05T01:28:37.716Z,1019.46
2018-02-05T01:29:37.731Z,1019.45
2018-02-05T01:30:37.747Z,1019.46
2018-02-05T01:31:37.758Z,1019.48
2018-02-05T01:32:37.782Z,1019.46
2018-02-05T01:33:37.788Z,1019.47
2018-02-05T01:34:37.858Z,1019.47
2018-02-05T01:35:37.820Z,1019.45
2018-02-05T01:36:37.841Z,1019.43
2018-02-05T01:37:37.852Z,1019.46
2018-02-05T01:38:37.867Z,1019.47
2018-02-05T01:39:37.884Z,1019.45
2018-02-05T01:40:37.905Z,1019.45
2018-02-05T01:41:37.916Z,1019.48
2018-02-05T01:42:37.931Z,1019.47
2018-02-05T01:43:37.953Z,1019.44
2018-02-05T01:44:37.968Z,1019.46
2018-02-05T01:45:37.983Z,1019.44
2018-02-05T01:46:37.994Z,1019.44
2018-02-05T01:47:38.016Z,1019.41
2018-02-05T01:48:38.026Z,1019.43
2018-02-05T01:49:38.047Z,1019.42
2018-02-05T01:50:38.056Z,1019.44
2018-02-05T01:51:38.079Z,1019.45
2018-02-05T01:52:38.089Z,1019.41
2018-02-05T01:53:38.110Z,1019.46
2018-02-05T01:54:38.126Z,1019.40
2018-02-05T01:55:38.142Z,1019.41
2018-02-05T01:56:38.158Z,1019.41
2018-02-05T01:57:38.169Z,1019.42
2018-02-05T01:58:38.188Z,1019.45
2018-02-05T01:59:38.199Z,1019.43
2018-02-05T02:00:38.221Z,1019.44
2018-02-05T02:01:38.238Z,1019.44
2018-02-05T02:02:38.246Z,1019.45
2018-02-05T02:03:38.267Z,1019.44
2018-02-05T02:04:38.283Z,1019.47
2018-02-05T02:05:38.293Z,1019.46
2018-02-05T02:06:38.309Z,1019.45
2018-02-05T02:07:38.330Z,1019.44
2018-02-05T02:08:38.347Z,1019.43
2018-02-05T02:09:38.355Z,1019.47
2018-02-05T02:10:38.372Z,1019.48
2018-02-05T02:11:38.387Z,1019.46
2018-02-05T02:12:38.408Z,1019.43
2018-02-05T02:13:38.423Z,1019.47
2018-02-05T02:14:38.434Z,1019.42
2018-02-05T02:15:38.456Z,1019.44
2018-02-05T02:16:38.472Z,1019.47
2018-02-05T02:17:38.486Z,1019.45
2018-02-05T02:18:38.503Z,1019.45
2018-02-05T02:19:38.513Z,1019.48
2018-02-05T02:20:38.529Z,1019.50
2018-02-05T02:21:38.550Z,1019.55
2018-02-05T02:22:38.564Z,1019.54
2018-02-05T02:23:38.575Z,1019.54
2018-02-05T02:24:38.591Z,1019.55
2018-02-05T02:25:38.611Z,1019.52
2018-02-05T02:26:38.628Z,1019.54
2018-02-05T02:27:38.644Z,1019.57
2018-02-05T02:28:38.655Z,1019.57
2018-02-05T02:29:38.675Z,1019.50
2018-02-05T02:30:38.692Z,1019.53
2018-02-05T02:31:38.702Z,1019.48
2018-02-05T02:32:38.718Z,1019.54
2018-02-05T02:33:38.732Z,1019.47
2018-02-05T02:34:38.755Z,1019.47
2018-02-05T02:35:38.764Z,1019.49
2018-02-05T02:36:38.786Z,1019.45
2018-02-05T02:37:38.796Z,1019.41
2018-02-05T02:38:38.817Z,1019.46
2018-02-05T02:39:38.827Z,1019.50
2018-02-05T02:40:38.848Z,1019.47
2018-02-05T02:41:38.859Z,1019.44
2018-02-05T02:42:38.880Z,1019.48
2018-02-05T02:43:38.897Z,1019.50
2018-02-05T02:44:38.913Z,1019.50
2018-02-05T02:45:38.928Z,1019.52
2018-02-05T02:46:38.942Z,1019.53
2018-02-05T02:47:38.954Z,1019.56
2018-02-05T02:48:38.969Z,1019.57
2018-02-05T02:49:38.990Z,1019.55
2018-02-05T02:50:39.002Z,1019.57
2018-02-05T02:51:39.023Z,1019.58
2018-02-05T02:52:39.033Z,1019.60
2018-02-05T02:53:39.054Z,1019.59
2018-02-05T02:54:39.064Z,1019.60
2018-02-05T02:55:39.085Z,1019.62
2018-02-05T02:56:39.095Z,1019.59
2018-02-05T02:57:39.117Z,1019.58
2018-02-05T02:58:39.132Z,1019.57
2018-02-05T02:59:39.144Z,1019.66
2018-02-05T03:00:39.159Z,1019.65
2018-02-05T03:01:39.174Z,1019.63
2018-02-05T03:02:39.199Z,1019.63
2018-02-05T03:03:39.207Z,1019.60
2018-02-05T03:04:39.228Z,1019.62
2018-02-05T03:05:39.236Z,1019.60
2018-02-05T03:06:39.252Z,1019.66
2018-02-05T03:07:39.274Z,1019.68
2018-02-05T03:08:39.284Z,1019.69
2018-02-05T03:09:39.305Z,1019.75
2018-02-05T03:10:39.315Z,1019.69
2018-02-05T03:11:39.335Z,1019.66
2018-02-05T03:12:39.348Z,1019.74
2018-02-05T03:13:39.368Z,1019.76
2018-02-05T03:14:39.379Z,1019.76
2018-02-05T03:15:39.398Z,1019.82
2018-02-05T03:16:39.410Z,1019.81
2018-02-05T03:17:39.430Z,1019.80
2018-02-05T03:18:39.440Z,1019.84
2018-02-05T03:19:39.467Z,1019.78
2018-02-05T03:20:39.472Z,1019.80
2018-02-05T03:21:39.492Z,1019.76
2018-02-05T03:22:39.509Z,1019.78
2018-02-05T03:23:39.519Z,1019.79
2018-02-05T03:24:39.541Z,1019.79
2018-02-05T03:25:39.549Z,1019.80
2018-02-05T03:26:39.570Z,1019.79
2018-02-05T03:27:39.581Z,1019.80
2018-02-05T03:28:39.602Z,1019.78
2018-02-05T03:29:39.613Z,1019.79
2018-02-05T03:30:39.635Z,1019.84
2018-02-05T03:31:39.644Z,1019.84
2018-02-05T03:32:39.665Z,1019.84
2018-02-05T03:33:39.674Z,1019.86
2018-02-05T03:34:39.696Z,1019.84
2018-02-05T03:35:39.707Z,1019.83
2018-02-05T03:36:39.727Z,1019.86
2018-02-05T03:37:39.737Z,1019.83
2018-02-05T03:38:39.753Z,1019.83
2018-02-05T03:39:39.774Z,1019.87
2018-02-05T03:40:39.791Z,1019.81
2018-02-05T03:41:39.799Z,1019.85
2018-02-05T03:42:39.816Z,1019.88
2018-02-05T03:43:39.837Z,1019.91
2018-02-05T03:44:39.852Z,1019.88
2018-02-05T03:45:39.862Z,1019.91
2018-02-05T03:46:39.877Z,1019.91
2018-02-05T03:47:39.899Z,1019.91
2018-02-05T03:48:39.915Z,1020.00
2018-02-05T03:49:39.924Z,1020.00
2018-02-05T03:50:39.938Z,1019.98
2018-02-05T03:51:39.962Z,1019.97
2018-02-05T03:52:39.977Z,1020.00
2018-02-05T03:53:39.985Z,1020.06
2018-02-05T03:54:40.008Z,1020.12
2018-02-05T03:55:40.017Z,1020.12
2018-02-05T03:56:40.032Z,1020.13
2018-02-05T03:57:40.052Z,1020.12
2018-02-05T03:58:40.069Z,1020.06
2018-02-05T03:59:40.081Z,1020.10
2018-02-05T04:00:40.094Z,1020.09
2018-02-05T04:01:40.113Z,1020.07
2018-02-05T04:02:40.130Z,1020.04
2018-02-05T04:03:40.140Z,1020.04
2018-02-05T04:04:40.156Z,1020.13
2018-02-05T04:05:40.176Z,1020.08
2018-02-05T04:06:40.192Z,1020.09
2018-02-05T04:07:40.202Z,1020.09
2018-02-05T04:08:40.218Z,1020.17
2018-02-05T04:09:40.238Z,1020.15
2018-02-05T04:10:40.250Z,1020.10
2018-02-05T04:11:40.268Z,1020.16
2018-02-05T04:12:40.280Z,1020.17
2018-02-05T04:13:40.300Z,1020.20
2018-02-05T04:14:40.311Z,1020.15
2018-02-05T04:15:40.332Z,1020.19
2018-02-05T04:16:40.342Z,1020.20
2018-02-05T04:17:40.361Z,1020.18
2018-02-05T04:18:40.371Z,1020.18
2018-02-05T04:19:40.394Z,1020.17
2018-02-05T04:20:40.409Z,1020.24
2018-02-05T04:21:40.419Z,1020.27
2018-02-05T04:22:40.434Z,1020.22
2018-02-05T04:23:40.456Z,1020.21
2018-02-05T04:24:40.473Z,1020.22
2018-02-05T04:25:40.481Z,1020.23
2018-02-05T04:26:40.505Z,1020.24
2018-02-05T04:27:40.512Z,1020.27
2018-02-05T04:28:40.533Z,1020.26
2018-02-05T04:29:40.543Z,1020.31
2018-02-05T04:30:40.564Z,1020.32
2018-02-05T04:31:40.576Z,1020.30
2018-02-05T04:32:40.596Z,1020.29
2018-02-05T04:33:40.639Z,1020.32
2018-02-05T04:34:40.620Z,1020.27
2018-02-05T04:35:40.644Z,1020.30
2018-02-05T04:36:40.655Z,1020.30
2018-02-05T04:37:40.676Z,1020.32
2018-02-05T04:38:40.687Z,1020.32
2018-02-05T04:39:40.705Z,1020.29
2018-02-05T04:40:40.717Z,1020.32
2018-02-05T04:41:40.738Z,1020.35
2018-02-05T04:42:40.748Z,1020.37
2018-02-05T04:43:40.770Z,1020.30
2018-02-05T04:44:40.785Z,1020.38
2018-02-05T04:45:40.806Z,1020.38
2018-02-05T04:46:40.813Z,1020.40
2018-02-05T04:47:40.832Z,1020.35
2018-02-05T04:48:40.848Z,1020.29
2018-02-05T04:49:40.858Z,1020.32
2018-02-05T04:50:40.881Z,1020.35
2018-02-05T04:51:40.890Z,1020.37
2018-02-05T04:52:40.912Z,1020.35
2018-02-05T04:53:40.921Z,1020.41
2018-02-05T04:54:40.943Z,1020.37
2018-02-05T04:55:40.955Z,1020.36
2018-02-05T04:56:40.975Z,1020.40
2018-02-05T04:57:40.986Z,1020.39
2018-02-05T04:58:41.007Z,1020.36
2018-02-05T04:59:41.017Z,1020.42
2018-02-05T05:00:41.033Z,1020.41
2018-02-05T05:01:41.054Z,1020.35
2018-02-05T05:02:41.069Z,1020.37
2018-02-05T05:03:41.081Z,1020.42
2018-02-05T05:04:41.098Z,1020.42
2018-02-05T05:05:41.119Z,1020.48
2018-02-05T05:06:41.130Z,1020.38
2018-02-05T05:07:41.150Z,1020.40
2018-02-05T05:08:41.167Z,1020.40
2018-02-05T05:09:41.176Z,1020.36
2018-02-05T05:10:41.193Z,1020.34
2018-02-05T05:11:41.214Z,1020.40
2018-02-05T05:12:41.231Z,1020.36
2018-02-05T05:13:41.240Z,1020.40
2018-02-05T05:14:41.261Z,1020.34
2018-02-05T05:15:41.272Z,1020.36
2018-02-05T05:16:41.294Z,1020.32
2018-02-05T05:17:41.303Z,1020.41
2018-02-05T05:18:41.328Z,1020.39
2018-02-05T05:19:41.336Z,1020.38
2018-02-05T05:20:41.358Z,1020.44
2018-02-05T05:21:41.367Z,1020.43
2018-02-05T05:22:41.391Z,1020.41
2018-02-05T05:23:41.407Z,1020.35
2018-02-05T05:24:41.421Z,1020.35
2018-02-05T05:25:41.431Z,1020.36
2018-02-05T05:26:41.452Z,1020.40
2018-02-05T05:27:41.464Z,1020.31
2018-02-05T05:28:41.486Z,1020.37
2018-02-05T05:29:41.501Z,1020.35
2018-02-05T05:30:41.512Z,1020.32
2018-02-05T05:31:41.534Z,1020.36
2018-02-05T05:32:41.545Z,1020.35
2018-02-05T05:33:41.565Z,1020.31
2018-02-05T05:34:41.575Z,1020.35
2018-02-05T05:35:41.597Z,1020.39
2018-02-05T05:36:41.608Z,1020.37
2018-02-05T05:37:41.629Z,1020.40
2018-02-05T05:38:41.639Z,1020.38
2018-02-05T05:39:41.655Z,1020.40
2018-02-05T05:40:41.672Z,1020.44
2018-02-05T05:41:41.699Z,1020.45
2018-02-05T05:42:41.704Z,1020.42
2018-02-05T05:43:41.726Z,1020.45
2018-02-05T05:44:41.737Z,1020.44
2018-02-05T05:45:41.751Z,1020.49
2018-02-05T05:46:41.770Z,1020.44
2018-02-05T05:47:41.790Z,1020.44
2018-02-05T05:48:41.805Z,1020.44
2018-02-05T05:49:41.817Z,1020.48
2018-02-05T05:50:41.833Z,1020.42
2018-02-05T05:51:41.854Z,1020.45
2018-02-05T05:52:41.871Z,1020.46
2018-02-05T05:53:41.879Z,1020.40
2018-02-05T05:54:41.944Z,1020.36
2018-02-05T05:55:41.912Z,1020.38
2018-02-05T05:56:41.935Z,1020.41
2018-02-05T05:57:41.950Z,1020.37
2018-02-05T05:58:41.960Z,1020.40
2018-02-05T05:59:41.982Z,1020.38
2018-02-05T06:00:41.993Z,1020.44
2018-02-05T06:01:42.015Z,1020.39
2018-02-05T06:02:42.031Z,1020.43
2018-02-05T06:03:42.042Z,1020.42
2018-02-05T06:04:42.060Z,1020.40
2018-02-05T06:05:42.079Z,1020.43
2018-02-05T06:06:42.095Z,1020.40
2018-02-05T06:07:42.106Z,1020.46
2018-02-05T06:08:42.123Z,1020.43
2018-02-05T06:09:42.143Z,1020.44
2018-02-05T06:10:42.155Z,1020.45
2018-02-05T06:11:42.179Z,1020.46
2018-02-05T06:12:42.188Z,1020.45
2018-02-05T06:13:42.202Z,1020.42
2018-02-05T06:14:42.225Z,1020.46
2018-02-05T06:15:42.241Z,1020.43
2018-02-05T06:16:42.257Z,1020.49
2018-02-05T06:17:42.266Z,1020.47
2018-02-05T06:18:42.321Z,1020.48
2018-02-05T06:19:42.300Z,1020.46
2018-02-05T06:20:42.322Z,1020.51
2018-02-05T06:21:42.332Z,1020.52
2018-02-05T06:22:42.352Z,1020.53
2018-02-05T06:23:42.366Z,1020.51
2018-02-05T06:24:42.390Z,1020.51
2018-02-05T06:25:42.482Z,1020.57
2018-02-05T06:26:42.413Z,1020.55
2018-02-05T06:27:42.428Z,1020.59
2018-02-05T06:28:42.451Z,1020.58
2018-02-05T06:29:42.461Z,1020.59
2018-02-05T06:30:42.476Z,1020.53
2018-02-05T06:31:42.499Z,1020.58
2018-02-05T06:32:42.516Z,1020.57
2018-02-05T06:33:42.532Z,1020.63
2018-02-05T06:34:42.541Z,1020.62
2018-02-05T06:35:42.562Z,1020.59
2018-02-05T06:36:42.574Z,1020.59
2018-02-05T06:37:42.595Z,1020.63
2018-02-05T06:38:42.606Z,1020.64
2018-02-05T06:39:42.629Z,1020.61
2018-02-05T06:40:42.643Z,1020.65
2018-02-05T06:41:42.660Z,1020.62
2018-02-05T06:42:42.677Z,1020.60
2018-02-05T06:43:42.693Z,1020.65
2018-02-05T06:44:42.708Z,1020.64
2018-02-05T06:45:42.719Z,1020.66
2018-02-05T06:46:42.742Z,1020.65
2018-02-05T06:47:42.752Z,1020.68
2018-02-05T06:48:42.776Z,1020.68
2018-02-05T06:49:42.791Z,1020.67
2018-02-05T06:50:42.802Z,1020.71
2018-02-05T06:51:42.823Z,1020.68
2018-02-05T06:52:42.839Z,1020.67
2018-02-05T06:53:42.849Z,1020.69
2018-02-05T06:54:42.867Z,1020.69
2018-02-05T06:55:42.889Z,1020.73
2018-02-05T06:56:42.905Z,1020.72
2018-02-05T06:57:42.914Z,1020.71
2018-02-05T06:58:42.932Z,1020.73
2018-02-05T06:59:42.949Z,1020.69
2018-02-05T07:00:42.968Z,1020.69
2018-02-05T07:01:42.987Z,1020.72
2018-02-05T07:02:42.996Z,1020.73
2018-02-05T07:03:43.019Z,1020.72
2018-02-05T07:04:43.032Z,1020.74
2018-02-05T07:05:43.045Z,1020.73
2018-02-05T07:06:43.067Z,1020.67
2018-02-05T07:07:43.079Z,1020.70
2018-02-05T07:08:43.095Z,1020.72
2018-02-05T07:09:43.116Z,1020.75
2018-02-05T07:10:43.133Z,1020.75
2018-02-05T07:11:43.150Z,1020.78
2018-02-05T07:12:43.160Z,1020.84
2018-02-05T07:13:43.181Z,1020.76
2018-02-05T07:14:43.193Z,1020.79
2018-02-05T07:15:43.212Z,1020.82
2018-02-05T07:16:43.232Z,1020.83
2018-02-05T07:17:43.246Z,1020.94
2018-02-05T07:18:43.257Z,1020.88
2018-02-05T07:19:43.280Z,1020.92
2018-02-05T07:20:43.291Z,1020.92
2018-02-05T07:21:43.312Z,1020.89
2018-02-05T07:22:43.329Z,1020.86
2018-02-05T07:23:43.339Z,1020.88
2018-02-05T07:24:43.361Z,1020.86
2018-02-05T07:25:43.376Z,1020.88
2018-02-05T07:26:43.393Z,1020.88
2018-02-05T07:27:43.406Z,1020.87
2018-02-05T07:28:43.427Z,1020.89
2018-02-05T07:29:43.437Z,1020.97
2018-02-05T07:30:43.453Z,1020.94
2018-02-05T07:31:43.476Z,1020.94
2018-02-05T07:32:43.493Z,1020.96
2018-02-05T07:33:43.504Z,1020.88
2018-02-05T07:34:43.520Z,1020.90
2018-02-05T07:35:43.544Z,1020.92
2018-02-05T07:36:43.558Z,1020.92
2018-02-05T07:37:43.568Z,1020.91
2018-02-05T07:38:43.590Z,1020.92
2018-02-05T07:39:43.606Z,1020.94
2018-02-05T07:40:43.624Z,1020.95
2018-02-05T07:41:43.634Z,1020.93
2018-02-05T07:42:43.651Z,1020.96
2018-02-05T07:43:43.677Z,1020.99
2018-02-05T07:44:43.689Z,1020.98
2018-02-05T07:45:43.699Z,1020.99
2018-02-05T07:46:43.721Z,1020.95
2018-02-05T07:47:43.732Z,1020.97
2018-02-05T07:48:43.749Z,1021.02
2018-02-05T07:49:43.770Z,1021.02
2018-02-05T07:50:43.787Z,1021.05
2018-02-05T07:51:43.797Z,1021.03
2018-02-05T07:52:43.814Z,1020.98
2018-02-05T07:53:43.835Z,1020.99
2018-02-05T07:54:43.847Z,1021.03
2018-02-05T07:55:43.868Z,1021.09
2018-02-05T07:56:43.885Z,1021.09
2018-02-05T07:57:43.895Z,1021.10
2018-02-05T07:58:43.913Z,1021.02
2018-02-05T07:59:43.934Z,1021.04
2018-02-05T08:00:43.951Z,1021.00
2018-02-05T08:01:43.961Z,1021.01
2018-02-05T08:02:43.976Z,1020.98
2018-02-05T08:03:44.000Z,1020.97
2018-02-05T08:04:44.011Z,1020.97
2018-02-05T08:05:44.032Z,1021.02
2018-02-05T08:06:44.043Z,1020.99
2018-02-05T08:07:44.065Z,1020.95
2018-02-05T08:08:44.078Z,1020.98
2018-02-05T08:09:44.096Z,1021.01
2018-02-05T08:10:44.108Z,1020.98
2018-02-05T08:11:44.131Z,1021.05
2018-02-05T08:12:44.141Z,1021.04
2018-02-05T08:13:44.163Z,1021.03
2018-02-05T08:14:44.175Z,1021.04
2018-02-05T08:15:44.197Z,1021.05
2018-02-05T08:16:44.207Z,1021.09
2018-02-05T08:17:44.229Z,1021.05
2018-02-05T08:18:44.246Z,1021.07
2018-02-05T08:19:44.257Z,1021.03
2018-02-05T08:20:44.279Z,1021.07
2018-02-05T08:21:44.288Z,1020.99
2018-02-05T08:22:44.311Z,1020.97
2018-02-05T08:23:44.323Z,1020.98
2018-02-05T08:24:44.345Z,1021.03
2018-02-05T08:25:44.356Z,1021.07
2018-02-05T08:26:44.377Z,1021.01
2018-02-05T08:27:44.394Z,1021.06
2018-02-05T08:28:44.411Z,1021.02
2018-02-05T08:29:44.421Z,1020.96
2018-02-05T08:30:44.438Z,1020.95
2018-02-05T08:31:44.460Z,1021.01
2018-02-05T08:32:44.477Z,1020.97
2018-02-05T08:33:44.487Z,1020.97
2018-02-05T08:34:44.504Z,1020.98
2018-02-05T08:35:44.529Z,1021.00
2018-02-05T08:36:44.544Z,1021.07
2018-02-05T08:37:44.554Z,1021.03
2018-02-05T08:38:44.584Z,1021.06
2018-02-05T08:39:44.593Z,1021.09
2018-02-05T08:40:44.608Z,1021.10
2018-02-05T08:41:44.620Z,1021.08
2018-02-05T08:42:44.643Z,1021.06
2018-02-05T08:43:44.657Z,1021.02
2018-02-05T08:44:44.673Z,1021.05
2018-02-05T08:45:44.692Z,1021.04
2018-02-05T08:46:44.710Z,1021.02
2018-02-05T08:47:44.721Z,1021.02
2018-02-05T08:48:44.740Z,1021.08
2018-02-05T08:49:44.760Z,1021.08
2018-02-05T08:50:44.777Z,1021.02
2018-02-05T08:51:44.788Z,1021.06
2018-02-05T08:52:44.818Z,1021.03
2018-02-05T08:53:44.831Z,1021.02
2018-02-05T08:54:44.844Z,1020.98
2018-02-05T08:55:44.878Z,1021.00
2018-02-05T08:56:44.873Z,1021.01
2018-02-05T08:57:44.894Z,1020.98
2018-02-05T08:58:44.907Z,1020.98
2018-02-05T08:59:44.928Z,1020.97
2018-02-05T09:00:44.939Z,1020.96
2018-02-05T09:01:44.962Z,1020.96
2018-02-05T09:02:44.973Z,1021.01
2018-02-05T09:03:44.996Z,1021.00
2018-02-05T09:04:45.009Z,1020.98
2018-02-05T09:05:45.030Z,1020.97
2018-02-05T09:06:45.040Z,1020.97
2018-02-05T09:07:45.066Z,1021.01
2018-02-05T09:08:45.076Z,1021.03
2018-02-05T09:09:45.097Z,1021.04
2018-02-05T09:10:45.110Z,1021.01
2018-02-05T09:11:45.131Z,1020.97
2018-02-05T09:12:45.143Z,1020.96
2018-02-05T09:13:45.164Z,1020.95
2018-02-05T09:14:45.181Z,1021.00
2018-02-05T09:15:45.194Z,1020.98
2018-02-05T09:16:45.215Z,1021.01
2018-02-05T09:17:45.225Z,1021.01
2018-02-05T09:18:45.249Z,1020.95
2018-02-05T09:19:45.264Z,1021.01
2018-02-05T09:20:45.303Z,1020.98
2018-02-05T09:21:45.294Z,1020.92
2018-02-05T09:22:45.319Z,1020.99
2018-02-05T09:23:45.327Z,1021.00
2018-02-05T09:24:45.350Z,1021.04
2018-02-05T09:25:45.361Z,1021.03
2018-02-05T09:26:45.385Z,1021.04
2018-02-05T09:27:45.397Z,1021.01
2018-02-05T09:28:45.420Z,1021.01
2018-02-05T09:29:45.429Z,1020.96
2018-02-05T09:30:45.446Z,1020.97
2018-02-05T09:31:45.464Z,1021.02
2018-02-05T09:32:45.480Z,1020.98
2018-02-05T09:33:45.503Z,1021.00
2018-02-05T09:34:45.520Z,1021.01
2018-02-05T09:35:45.537Z,1020.96
2018-02-05T09:36:45.550Z,1021.00
2018-02-05T09:37:45.565Z,1020.97
2018-02-05T09:38:45.583Z,1021.01
2018-02-05T09:39:45.681Z,1021.00
2018-02-05T09:40:45.703Z,1021.07
2018-02-05T09:41:45.658Z,1021.01
2018-02-05T09:42:45.694Z,1021.01
2018-02-05T09:43:45.674Z,1021.06
2018-02-05T09:44:45.692Z,1021.06
2018-02-05T09:45:45.772Z,1021.11
2018-02-05T09:46:45.760Z,1021.05
2018-02-05T09:47:45.764Z,1021.03
2018-02-05T09:48:45.781Z,1020.98
2018-02-05T09:49:45.773Z,1021.16
2018-02-05T09:50:45.790Z,1020.91
2018-02-05T09:51:45.808Z,1020.92
2018-02-05T09:52:45.836Z,1020.96
2018-02-05T09:53:45.848Z,1020.96
2018-02-05T09:54:45.866Z,1020.91
2018-02-05T09:55:45.882Z,1020.90
2018-02-05T09:56:45.900Z,1020.88
2018-02-05T09:57:45.922Z,1020.90
2018-02-05T09:58:45.938Z,1020.89
2018-02-05T09:59:45.975Z,1020.88
2018-02-05T10:00:45.969Z,1020.84
2018-02-05T10:01:45.994Z,1020.86
2018-02-05T10:02:46.013Z,1020.86
2018-02-05T10:03:46.035Z,1020.81
2018-02-05T10:04:46.065Z,1020.80
2018-02-05T10:05:46.138Z,1020.82
2018-02-05T10:06:46.107Z,1020.77
2018-02-05T10:07:46.126Z,1020.88
2018-02-05T10:08:46.159Z,1020.80
2018-02-05T10:09:46.133Z,1020.86
2018-02-05T10:10:46.152Z,1020.78
2018-02-05T10:11:46.183Z,1020.84
2018-02-05T10:12:46.188Z,1020.81
2018-02-05T10:13:46.259Z,1020.76
2018-02-05T10:14:46.222Z,1020.76
2018-02-05T10:15:46.234Z,1020.79
2018-02-05T10:16:46.257Z,1020.82
2018-02-05T10:17:46.268Z,1020.83
2018-02-05T10:18:46.286Z,1020.83
2018-02-05T10:19:46.310Z,1020.82
2018-02-05T10:20:46.327Z,1020.81
2018-02-05T10:21:46.344Z,1020.85
2018-02-05T10:22:46.365Z,1020.82
2018-02-05T10:23:46.379Z,1020.90
2018-02-05T10:24:46.427Z,1020.89
2018-02-05T10:25:46.503Z,1020.85
2018-02-05T10:26:46.425Z,1020.85
2018-02-05T10:27:46.450Z,1020.92
2018-02-05T10:28:46.465Z,1020.82
2018-02-05T10:29:46.481Z,1020.81
2018-02-05T10:30:46.494Z,1020.86
2018-02-05T10:31:46.516Z,1020.83
2018-02-05T10:32:46.529Z,1020.80
2018-02-05T10:33:46.552Z,1020.83
2018-02-05T10:34:46.569Z,1020.71
2018-02-05T10:35:46.580Z,1020.74
2018-02-05T10:36:46.604Z,1020.70
2018-02-05T10:37:46.614Z,1020.71
2018-02-05T10:38:46.632Z,1020.70
2018-02-05T10:39:46.649Z,1020.75
2018-02-05T10:40:46.673Z,1020.74
2018-02-05T10:41:46.688Z,1020.77
2018-02-05T10:42:46.702Z,1020.75
2018-02-05T10:43:46.724Z,1020.75
2018-02-05T10:44:46.742Z,1020.69
2018-02-05T10:45:46.754Z,1020.73
2018-02-05T10:46:46.771Z,1020.75
2018-02-05T10:47:46.793Z,1020.72
2018-02-05T10:48:46.810Z,1020.73
2018-02-05T10:49:46.821Z,1020.78
2018-02-05T10:50:46.840Z,1020.76
2018-02-05T10:51:46.863Z,1020.69
2018-02-05T10:52:46.875Z,1020.67
2018-02-05T10:53:46.890Z,1020.64
2018-02-05T10:54:46.913Z,1020.68
2018-02-05T10:55:46.929Z,1020.66
2018-02-05T10:56:46.949Z,1020.64
2018-02-05T10:57:46.959Z,1020.63
2018-02-05T10:58:46.983Z,1020.64
2018-02-05T10:59:46.995Z,1020.64
2018-02-05T11:00:47.101Z,1020.62
2018-02-05T11:01:47.036Z,1020.59
2018-02-05T11:02:47.052Z,1020.57
2018-02-05T11:03:47.065Z,1020.56
2018-02-05T11:04:47.081Z,1020.57
2018-02-05T11:05:47.187Z,1020.61
2018-02-05T11:06:47.132Z,1020.61
2018-02-05T11:07:47.141Z,1020.53
2018-02-05T11:08:47.194Z,1020.53
2018-02-05T11:09:47.175Z,1020.58
2018-02-05T11:10:47.218Z,1020.60
2018-02-05T11:11:47.249Z,1020.58
2018-02-05T11:12:47.222Z,1020.57
2018-02-05T11:13:47.245Z,1020.59
2018-02-05T11:14:47.265Z,1020.56
2018-02-05T11:15:47.277Z,1020.52
2018-02-05T11:16:47.300Z,1020.43
2018-02-05T11:17:47.310Z,1020.47
2018-02-05T11:18:47.334Z,1020.47
2018-02-05T11:19:47.347Z,1020.48
2018-02-05T11:20:47.370Z,1020.46
2018-02-05T11:21:47.388Z,1020.39
2018-02-05T11:22:47.405Z,1020.43
2018-02-05T11:23:47.417Z,1020.40
2018-02-05T11:24:47.435Z,1020.42
2018-02-05T11:25:47.454Z,1020.37
2018-02-05T11:26:47.469Z,1020.37
2018-02-05T11:27:47.488Z,1020.34
2018-02-05T11:28:47.512Z,1020.36
2018-02-05T11:29:47.522Z,1020.33
2018-02-05T11:30:47.541Z,1020.37
2018-02-05T11:31:47.563Z,1020.38
2018-02-05T11:32:47.575Z,1020.39
2018-02-05T11:33:47.598Z,1020.39
2018-02-05T11:34:47.613Z,1020.37
2018-02-05T11:35:47.634Z,1020.35
2018-02-05T11:36:47.646Z,1020.34
2018-02-05T11:37:47.669Z,1020.34
2018-02-05T11:38:47.682Z,1020.28
2018-02-05T11:39:47.704Z,1020.36
2018-02-05T11:40:47.716Z,1020.36
2018-02-05T11:41:47.738Z,1020.34
2018-02-05T11:42:47.750Z,1020.35
2018-02-05T11:43:47.777Z,1020.39
2018-02-05T11:44:47.786Z,1020.36
2018-02-05T11:45:47.808Z,1020.31
2018-02-05T11:46:47.820Z,1020.32
2018-02-05T11:47:47.842Z,1020.26
2018-02-05T11:48:47.855Z,1020.25
2018-02-05T11:49:47.876Z,1020.25
2018-02-05T11:50:47.891Z,1020.25
2018-02-05T11:51:47.912Z,1020.24
2018-02-05T11:52:47.924Z,1020.23
2018-02-05T11:53:47.946Z,1020.18
2018-02-05T11:54:47.964Z,1020.17
2018-02-05T11:55:47.977Z,1020.13
2018-02-05T11:56:47.998Z,1020.13
2018-02-05T11:57:48.010Z,1020.07
2018-02-05T11:58:48.034Z,1020.06
2018-02-05T11:59:48.052Z,1020.09
2018-02-05T12:00:48.069Z,1020.05
2018-02-05T12:01:48.136Z,1020.03
2018-02-05T12:02:48.134Z,1020.07
2018-02-05T12:03:48.116Z,1020.10
2018-02-05T12:04:48.139Z,1020.06
2018-02-05T12:05:48.151Z,1020.06